createdAt,value
2022-10-28T00:01:16.643Z,56.39
2022-10-28T00:03:45.745Z,56.84
2022-10-28T00:06:20.631Z,56.09
2022-10-28T00:08:47.858Z,56.57
2022-10-28T00:11:34.286Z,56.57
2022-10-28T00:14:04.513Z,55.96
2022-10-28T00:16:33.686Z,55.91
2022-10-28T00:19:01.135Z,56.26
2022-10-28T00:21:29.711Z,56.25
2022-10-28T00:23:56.774Z,56.44
2022-10-28T00:26:25.549Z,56.38
2022-10-28T00:28:58.136Z,56.33
2022-10-28T00:31:26.510Z,56.81
2022-10-28T00:33:53.673Z,56.76
2022-10-28T00:36:24.461Z,55.79
2022-10-28T00:38:52.431Z,56.69
2022-10-28T00:41:25.027Z,56.40
2022-10-28T00:43:54.382Z,56.13
2022-10-28T00:46:25.800Z,56.47
2022-10-28T00:49:01.932Z,56.72
2022-10-28T00:51:29.316Z,55.83
2022-10-28T00:53:56.518Z,56.43
2022-10-28T00:56:27.296Z,55.85
2022-10-28T00:58:56.325Z,56.03
2022-10-28T01:01:23.499Z,55.74
2022-10-28T01:03:50.549Z,55.93
2022-10-28T01:06:39.915Z,56.22
2022-10-28T01:09:22.028Z,56.43
2022-10-28T01:12:04.770Z,56.41
2022-10-28T01:15:02.447Z,56.19
2022-10-28T01:18:04.313Z,55.78
2022-10-28T01:20:52.923Z,55.65
2022-10-28T01:23:42.260Z,56.58
2022-10-28T01:26:33.848Z,55.78
2022-10-28T01:29:03.528Z,55.67
2022-10-28T01:31:39.472Z,56.11
2022-10-28T01:34:11.653Z,56.44
2022-10-28T01:36:49.394Z,56.16
2022-10-28T01:39:22.348Z,55.75
2022-10-28T01:42:07.609Z,56.03
2022-10-28T01:44:40.449Z,56.45
2022-10-28T01:47:20.152Z,55.80
2022-10-28T01:49:55.969Z,56.51
2022-10-28T01:52:25.167Z,56.18
2022-10-28T01:54:55.144Z,56.48
2022-10-28T01:57:22.119Z,55.95
2022-10-28T01:59:49.031Z,56.22
2022-10-28T02:02:16.411Z,55.94
2022-10-28T02:04:43.339Z,56.23
2022-10-28T02:07:10.290Z,55.82
2022-10-28T02:09:51.997Z,56.03
2022-10-28T02:12:35.521Z,55.92
2022-10-28T02:15:33.498Z,56.30
2022-10-28T02:18:14.104Z,55.65
2022-10-28T02:21:00.130Z,55.47
2022-10-28T02:23:57.158Z,56.01
2022-10-28T02:26:42.310Z,56.29
2022-10-28T02:29:26.049Z,55.63
2022-10-28T02:31:55.977Z,56.02
2022-10-28T02:34:26.667Z,55.84
2022-10-28T02:36:54.910Z,56.00
2022-10-28T02:39:25.171Z,56.53
2022-10-28T02:41:52.020Z,56.01
2022-10-28T02:44:30.918Z,56.12
2022-10-28T02:46:59.666Z,55.63
2022-10-28T02:49:26.641Z,56.12
2022-10-28T02:52:00.806Z,56.19
2022-10-28T02:54:32.638Z,55.39
2022-10-28T02:57:29.833Z,55.57
2022-10-28T02:59:58.933Z,55.54
2022-10-28T03:02:26.121Z,56.31
2022-10-28T03:04:53.209Z,56.53
2022-10-28T03:07:20.398Z,55.85
2022-10-28T03:09:47.360Z,56.08
2022-10-28T03:12:14.459Z,56.49
2022-10-28T03:14:42.638Z,55.53
2022-10-28T03:17:09.559Z,55.86
2022-10-28T03:19:36.508Z,55.87
2022-10-28T03:22:03.570Z,55.74
2022-10-28T03:24:30.517Z,55.60
2022-10-28T03:26:57.416Z,55.46
2022-10-28T03:29:24.443Z,56.52
2022-10-28T03:31:51.340Z,55.60
2022-10-28T03:34:18.356Z,56.00
2022-10-28T03:36:45.245Z,55.82
2022-10-28T03:39:12.167Z,55.76
2022-10-28T03:41:39.083Z,55.70
2022-10-28T03:44:06.688Z,56.32
2022-10-28T03:46:35.981Z,55.10
2022-10-28T03:49:03.551Z,55.94
2022-10-28T03:51:30.510Z,55.94
2022-10-28T03:53:57.504Z,55.98
2022-10-28T03:56:24.405Z,56.00
2022-10-28T04:01:23.290Z,55.86
2022-10-28T04:03:50.313Z,55.77
2022-10-28T04:06:17.323Z,55.62
2022-10-28T04:08:44.306Z,55.95
2022-10-28T04:11:11.238Z,55.30
2022-10-28T04:13:38.234Z,55.37
2022-10-28T04:16:05.666Z,55.98
2022-10-28T04:18:32.585Z,55.41
2022-10-28T04:20:59.529Z,56.07
2022-10-28T04:23:26.468Z,55.37
2022-10-28T04:25:56.435Z,56.13
2022-10-28T04:28:26.275Z,55.44
2022-10-28T04:30:53.168Z,55.86
2022-10-28T04:33:20.097Z,56.30
2022-10-28T04:35:47.055Z,55.22
2022-10-28T04:38:14.614Z,55.12
2022-10-28T04:40:41.680Z,55.77
2022-10-28T04:43:10.159Z,55.05
2022-10-28T04:45:37.870Z,55.73
2022-10-28T04:48:05.143Z,55.64
2022-10-28T04:50:32.090Z,55.66
2022-10-28T04:52:58.999Z,56.31
2022-10-28T04:55:25.915Z,55.40
2022-10-28T04:57:59.829Z,55.84
2022-10-28T05:00:27.625Z,55.55
2022-10-28T05:02:55.000Z,56.06
2022-10-28T05:05:22.143Z,55.70
2022-10-28T05:07:49.104Z,56.07
2022-10-28T05:10:18.381Z,55.96
2022-10-28T05:12:45.926Z,55.76
2022-10-28T05:15:13.216Z,55.33
2022-10-28T05:17:41.249Z,55.88
2022-10-28T05:20:08.953Z,55.45
2022-10-28T05:22:35.931Z,55.81
2022-10-28T05:25:02.873Z,55.54
2022-10-28T05:27:29.817Z,56.19
2022-10-28T05:29:56.750Z,55.07
2022-10-28T05:32:23.723Z,55.77
2022-10-28T05:34:50.650Z,55.71
2022-10-28T05:37:17.592Z,55.31
2022-10-28T05:39:44.561Z,55.79
2022-10-28T05:42:11.498Z,55.29
2022-10-28T05:44:38.703Z,55.64
2022-10-28T05:47:05.901Z,55.91
2022-10-28T05:49:32.848Z,55.73
2022-10-28T05:51:59.955Z,55.95
2022-10-28T05:54:27.055Z,55.67
2022-10-28T05:56:54.019Z,55.99
2022-10-28T05:59:20.997Z,55.26
2022-10-28T06:01:48.004Z,55.61
2022-10-28T06:04:15.085Z,55.78
2022-10-28T06:06:42.091Z,55.18
2022-10-28T06:09:09.112Z,54.78
2022-10-28T06:11:34.466Z,55.74
2022-10-28T06:14:01.475Z,55.31
2022-10-28T06:16:28.408Z,55.37
2022-10-28T06:18:55.447Z,55.71
2022-10-28T06:21:22.360Z,55.27
2022-10-28T06:23:50.164Z,55.32
2022-10-28T06:26:17.058Z,55.67
2022-10-28T06:28:46.426Z,56.17
2022-10-28T06:31:13.392Z,55.05
2022-10-28T06:33:40.314Z,54.67
2022-10-28T06:36:07.591Z,55.12
2022-10-28T06:38:34.534Z,55.33
2022-10-28T06:41:01.444Z,55.48
2022-10-28T06:43:28.422Z,55.50
2022-10-28T06:45:56.103Z,55.36
2022-10-28T06:48:24.934Z,55.10
2022-10-28T06:50:51.896Z,55.27
2022-10-28T06:53:19.021Z,54.84
2022-10-28T06:55:52.953Z,55.95
2022-10-28T06:58:19.907Z,55.38
2022-10-28T07:00:46.798Z,56.59
2022-10-28T07:03:13.775Z,55.78
2022-10-28T07:05:40.658Z,56.49
2022-10-28T07:08:07.717Z,55.50
2022-10-28T07:10:34.628Z,55.57
2022-10-28T07:13:01.576Z,56.10
2022-10-28T07:15:28.511Z,56.00
2022-10-28T07:17:56.176Z,55.81
2022-10-28T07:20:23.569Z,55.23
2022-10-28T07:23:00.149Z,55.65
2022-10-28T07:25:27.887Z,55.36
2022-10-28T07:27:55.123Z,55.29
2022-10-28T07:30:22.248Z,55.34
2022-10-28T07:32:49.261Z,55.84
2022-10-28T07:35:16.300Z,55.30
2022-10-28T07:37:43.315Z,55.88
2022-10-28T07:40:10.575Z,56.11
2022-10-28T07:42:37.509Z,55.45
2022-10-28T07:45:04.957Z,55.88
2022-10-28T07:47:32.005Z,55.31
2022-10-28T07:49:58.985Z,55.88
2022-10-28T07:52:25.955Z,55.11
2022-10-28T07:54:52.884Z,55.44
2022-10-28T07:57:19.808Z,55.36
2022-10-28T07:59:46.710Z,55.69
2022-10-28T08:02:18.127Z,55.23
2022-10-28T08:04:45.050Z,55.20
2022-10-28T08:07:12.699Z,55.49
2022-10-28T08:09:40.037Z,55.14
2022-10-28T08:12:07.827Z,55.80
2022-10-28T08:14:34.898Z,55.50
2022-10-28T08:17:01.906Z,54.81
2022-10-28T08:19:28.792Z,55.78
2022-10-28T08:21:55.766Z,55.55
2022-10-28T08:24:22.778Z,55.19
2022-10-28T08:26:49.827Z,55.22
2022-10-28T08:29:16.832Z,55.03
2022-10-28T08:31:43.745Z,55.46
2022-10-28T08:34:10.759Z,55.17
2022-10-28T08:36:37.745Z,55.25
2022-10-28T08:39:04.813Z,55.77
2022-10-28T08:41:48.079Z,55.94
2022-10-28T08:44:14.940Z,55.11
2022-10-28T08:46:44.488Z,55.63
2022-10-28T08:49:14.326Z,55.13
2022-10-28T08:51:55.702Z,55.84
2022-10-28T08:54:35.060Z,55.12
2022-10-28T08:57:02.917Z,55.28
2022-10-28T08:59:34.555Z,54.80
2022-10-28T09:02:03.971Z,55.59
2022-10-28T09:04:39.709Z,55.39
2022-10-28T09:07:08.908Z,55.12
2022-10-28T09:09:35.824Z,55.06
2022-10-28T09:12:40.219Z,55.98
2022-10-28T09:15:09.974Z,60.18
2022-10-28T09:17:56.262Z,61.33
2022-10-28T09:20:48.011Z,62.75
2022-10-28T09:23:17.945Z,64.33
2022-10-28T09:26:20.387Z,64.12
2022-10-28T09:29:26.628Z,64.55
2022-10-28T09:31:56.470Z,65.90
2022-10-28T09:34:49.015Z,65.25
2022-10-28T09:37:15.876Z,63.74
2022-10-28T09:39:47.634Z,63.42
2022-10-28T09:42:18.674Z,62.77
2022-10-28T09:44:51.395Z,63.04
2022-10-28T09:47:21.837Z,62.72
2022-10-28T09:49:48.822Z,62.59
2022-10-28T09:52:24.040Z,62.07
2022-10-28T09:54:52.632Z,61.75
2022-10-28T09:57:20.139Z,62.31
2022-10-28T09:59:47.622Z,61.83
2022-10-28T10:02:40.585Z,61.42
2022-10-28T10:05:16.868Z,60.69
2022-10-28T10:07:53.616Z,61.27
2022-10-28T10:10:52.390Z,60.94
2022-10-28T10:13:24.306Z,60.12
2022-10-28T10:16:00.186Z,60.20
2022-10-28T10:18:33.202Z,60.31
2022-10-28T10:21:01.201Z,59.68
2022-10-28T10:23:35.371Z,60.24
2022-10-28T10:26:09.564Z,59.97
2022-10-28T10:28:48.644Z,59.70
2022-10-28T10:31:21.473Z,59.30
2022-10-28T10:33:57.666Z,59.18
2022-10-28T10:36:31.691Z,59.79
2022-10-28T10:39:01.218Z,58.98
2022-10-28T10:41:39.295Z,59.34
2022-10-28T10:44:21.575Z,59.25
2022-10-28T10:47:08.396Z,59.52
2022-10-28T10:49:36.549Z,59.77
2022-10-28T10:52:24.508Z,59.33
2022-10-28T10:55:33.057Z,59.06
2022-10-28T10:58:01.993Z,59.45
2022-10-28T11:00:39.094Z,59.13
2022-10-28T11:03:16.589Z,59.05
2022-10-28T11:06:18.432Z,58.66
2022-10-28T11:08:44.485Z,59.10
2022-10-28T11:11:20.659Z,58.36
2022-10-28T11:13:49.717Z,58.66
2022-10-28T11:16:24.999Z,58.57
2022-10-28T11:18:53.447Z,58.28
2022-10-28T11:21:44.225Z,58.81
2022-10-28T11:24:25.937Z,58.45
2022-10-28T11:27:13.500Z,58.29
2022-10-28T11:29:41.507Z,57.59
2022-10-28T11:32:54.457Z,57.91
2022-10-28T11:35:46.465Z,57.38
2022-10-28T11:38:53.422Z,57.23
2022-10-28T11:41:32.169Z,57.59
2022-10-28T11:44:04.919Z,57.54
2022-10-28T11:47:05.127Z,57.10
2022-10-28T11:49:44.111Z,57.15
2022-10-28T11:52:44.996Z,57.69
2022-10-28T11:55:48.470Z,57.16
2022-10-28T11:58:31.550Z,57.17
2022-10-28T12:01:11.801Z,57.48
2022-10-28T12:03:53.872Z,57.36
2022-10-28T12:06:51.208Z,57.03
2022-10-28T12:09:46.753Z,57.26
2022-10-28T12:12:38.452Z,57.41
2022-10-28T12:15:39.122Z,57.45
2022-10-28T12:18:16.246Z,56.78
2022-10-28T12:20:51.717Z,57.28
2022-10-28T12:23:22.858Z,57.36
2022-10-28T12:25:55.430Z,57.27
2022-10-28T12:28:28.496Z,57.14
2022-10-28T12:30:58.596Z,57.24
2022-10-28T12:33:40.040Z,56.64
2022-10-28T12:36:13.149Z,56.73
2022-10-28T12:38:57.242Z,56.73
2022-10-28T12:41:43.812Z,57.16
2022-10-28T12:44:16.534Z,56.68
2022-10-28T12:47:13.233Z,56.91
2022-10-28T12:50:04.518Z,56.90
2022-10-28T12:52:56.722Z,57.20
2022-10-28T12:55:33.086Z,57.08
2022-10-28T12:58:06.513Z,57.33
2022-10-28T13:00:40.721Z,57.18
2022-10-28T13:03:13.244Z,56.59
2022-10-28T13:05:40.101Z,57.13
2022-10-28T13:08:32.369Z,57.19
2022-10-28T13:11:43.572Z,56.62
2022-10-28T13:14:44.208Z,56.87
2022-10-28T13:17:48.332Z,57.09
2022-10-28T13:20:31.197Z,57.00
2022-10-28T13:23:24.170Z,56.64
2022-10-28T13:25:58.052Z,56.83
2022-10-28T13:28:33.216Z,56.52
2022-10-28T13:31:03.694Z,56.71
2022-10-28T13:33:33.893Z,56.45
2022-10-28T13:36:31.557Z,56.82
2022-10-28T13:39:03.595Z,56.63
2022-10-28T13:41:41.008Z,56.31
2022-10-28T13:44:10.310Z,56.67
2022-10-28T13:46:59.005Z,56.47
2022-10-28T13:49:33.593Z,56.25
2022-10-28T13:52:04.022Z,56.55
2022-10-28T13:54:33.863Z,56.21
2022-10-28T13:57:09.082Z,56.71
2022-10-28T13:59:51.146Z,56.25
2022-10-28T14:02:37.492Z,56.44
2022-10-28T14:05:10.181Z,56.11
2022-10-28T14:07:50.857Z,56.17
2022-10-28T14:10:33.107Z,56.72
2022-10-28T14:13:04.704Z,56.08
2022-10-28T14:15:35.898Z,56.32
2022-10-28T14:18:42.166Z,56.51
2022-10-28T14:21:08.919Z,56.79
2022-10-28T14:23:36.685Z,56.51
2022-10-28T14:26:05.823Z,56.47
2022-10-28T14:28:32.697Z,56.48
2022-10-28T14:31:08.609Z,56.42
2022-10-28T14:33:36.600Z,56.55
2022-10-28T14:36:21.471Z,56.54
2022-10-28T14:39:03.631Z,56.13
2022-10-28T14:42:02.404Z,56.31
2022-10-28T14:44:50.268Z,56.52
2022-10-28T14:47:35.825Z,56.51
2022-10-28T14:50:38.785Z,56.43
2022-10-28T14:53:29.759Z,56.33
2022-10-28T14:57:41.605Z,56.53
2022-10-28T16:06:58.059Z,56.89
2022-10-28T16:09:35.123Z,56.96
2022-10-28T16:12:17.696Z,57.38
2022-10-28T16:14:48.908Z,57.10
2022-10-28T16:17:23.999Z,57.32
2022-10-28T16:20:03.824Z,57.38
2022-10-28T16:22:34.635Z,57.24
2022-10-28T16:25:01.516Z,56.71
2022-10-28T16:27:31.722Z,57.72
2022-10-28T16:29:58.751Z,57.51
2022-10-28T16:32:29.542Z,57.53
2022-10-28T16:35:00.637Z,57.41
2022-10-28T16:37:30.395Z,57.39
2022-10-28T16:40:00.374Z,57.11
2022-10-28T16:42:27.472Z,57.43
2022-10-28T16:44:54.389Z,57.63
2022-10-28T16:47:24.430Z,57.34
2022-10-28T16:49:54.485Z,57.05
2022-10-28T16:52:30.350Z,56.97
2022-10-28T16:54:57.761Z,57.66
2022-10-28T16:57:26.493Z,57.18
2022-10-28T16:59:54.145Z,57.57
2022-10-28T17:02:35.008Z,57.85
2022-10-28T17:05:05.232Z,57.71
2022-10-28T17:07:32.376Z,57.74
2022-10-28T17:09:59.236Z,57.23
2022-10-28T17:12:27.740Z,56.93
2022-10-28T17:14:54.638Z,57.24
2022-10-28T17:17:21.601Z,57.06
2022-10-28T17:19:48.678Z,57.76
2022-10-28T17:22:15.876Z,57.82
2022-10-28T17:24:43.093Z,57.12
2022-10-28T17:27:10.042Z,57.40
2022-10-28T17:29:37.090Z,57.73
2022-10-28T17:32:04.174Z,57.32
2022-10-28T17:34:31.096Z,56.92
2022-10-28T17:36:58.370Z,57.14
2022-10-28T17:39:26.561Z,57.24
2022-10-28T17:41:55.181Z,57.24
2022-10-28T17:44:22.513Z,56.96
2022-10-28T17:46:49.470Z,57.44
2022-10-28T17:49:16.351Z,57.36
2022-10-28T17:51:43.434Z,57.58
2022-10-28T17:54:10.858Z,57.33
2022-10-28T17:56:39.469Z,57.26
2022-10-28T17:59:06.451Z,57.21
2022-10-28T18:01:36.162Z,57.08
2022-10-28T18:04:04.727Z,57.85
2022-10-28T18:06:32.409Z,57.34
2022-10-28T18:08:59.298Z,56.82
2022-10-28T18:11:27.734Z,57.50
2022-10-28T18:13:56.499Z,57.08
2022-10-28T18:16:28.087Z,57.39
2022-10-28T18:18:56.075Z,57.18
2022-10-28T18:21:24.800Z,57.49
2022-10-28T18:23:53.177Z,57.14
2022-10-28T18:26:21.104Z,57.36
2022-10-28T18:28:49.215Z,57.21
2022-10-28T18:31:20.222Z,57.62
2022-10-28T18:33:47.609Z,57.04
2022-10-28T18:36:17.276Z,57.14
2022-10-28T18:38:44.417Z,57.44
2022-10-28T18:41:19.829Z,57.28
2022-10-28T18:43:47.486Z,57.37
2022-10-28T18:46:14.712Z,57.17
2022-10-28T18:48:41.720Z,57.69
2022-10-28T18:51:11.770Z,57.17
2022-10-28T18:53:44.399Z,57.17
2022-10-28T18:56:14.386Z,57.41
2022-10-28T18:58:41.915Z,56.85
2022-10-28T19:01:16.990Z,57.11
2022-10-28T19:03:44.540Z,57.24
2022-10-28T19:06:14.276Z,57.41
2022-10-28T19:08:41.717Z,57.32
2022-10-28T19:11:11.718Z,56.86
2022-10-28T19:13:40.904Z,57.51
2022-10-28T19:16:08.759Z,57.06
2022-10-28T19:18:38.477Z,57.59
2022-10-28T19:21:12.976Z,57.53
2022-10-28T19:23:40.769Z,57.36
2022-10-28T19:26:08.899Z,57.55
2022-10-28T19:28:41.327Z,57.83
2022-10-28T19:31:13.439Z,57.61
2022-10-28T19:33:41.034Z,57.21
2022-10-28T19:36:14.527Z,57.62
2022-10-28T19:38:42.093Z,57.39
2022-10-28T19:41:17.044Z,57.47
2022-10-28T19:43:44.045Z,57.02
2022-10-28T19:46:13.320Z,57.20
2022-10-28T19:48:42.625Z,57.45
2022-10-28T19:51:13.983Z,57.53
2022-10-28T19:53:41.680Z,57.59
2022-10-28T19:56:08.645Z,57.54
2022-10-28T19:58:35.615Z,57.06
2022-10-28T20:01:05.884Z,57.09
2022-10-28T20:03:35.140Z,57.05
2022-10-28T20:06:11.595Z,57.36
2022-10-28T20:08:43.214Z,57.48
2022-10-28T20:11:13.806Z,57.10
2022-10-28T20:13:41.370Z,57.03
2022-10-28T20:16:13.882Z,57.41
2022-10-28T20:18:41.766Z,57.33
2022-10-28T20:21:16.457Z,58.04
2022-10-28T20:23:44.977Z,57.14
2022-10-28T20:26:13.516Z,57.28
2022-10-28T20:28:40.949Z,57.24
2022-10-28T20:31:10.641Z,56.95
2022-10-28T20:33:40.242Z,57.57
2022-10-28T20:36:21.809Z,57.40
2022-10-28T20:38:53.037Z,57.46
2022-10-28T20:41:20.069Z,56.91
2022-10-28T20:43:51.908Z,57.76
2022-10-28T20:46:20.320Z,57.39
2022-10-28T20:48:48.039Z,57.32
2022-10-28T20:51:15.164Z,57.69
2022-10-28T20:53:42.484Z,57.45
2022-10-28T20:56:17.022Z,57.27
2022-10-28T20:58:44.220Z,56.93
2022-10-28T21:01:16.868Z,56.80
2022-10-28T21:03:44.761Z,56.56
2022-10-28T21:08:41.698Z,57.33
2022-10-28T21:11:15.093Z,57.54
2022-10-28T21:13:44.691Z,57.23
2022-10-28T21:16:14.491Z,57.33
2022-10-28T21:18:41.513Z,57.31
2022-10-28T21:21:08.504Z,56.40
2022-10-28T21:23:35.407Z,56.79
2022-10-28T21:26:04.955Z,57.22
2022-10-28T21:28:33.321Z,57.29
2022-10-28T21:31:09.479Z,56.95
2022-10-28T21:33:37.743Z,57.08
2022-10-28T21:36:08.037Z,56.94
2022-10-28T21:38:35.807Z,56.57
2022-10-28T21:41:10.093Z,56.82
2022-10-28T21:43:39.651Z,57.00
2022-10-28T21:46:07.358Z,56.78
2022-10-28T21:48:35.870Z,57.18
2022-10-28T21:51:08.573Z,56.80
2022-10-28T21:53:39.376Z,57.01
2022-10-28T21:56:13.792Z,57.38
2022-10-28T21:58:43.391Z,56.42
2022-10-28T22:01:16.173Z,57.18
2022-10-28T22:03:43.422Z,56.99
2022-10-28T22:06:10.662Z,57.46
2022-10-28T22:08:37.529Z,56.96
2022-10-28T22:11:04.469Z,57.50
2022-10-28T22:13:31.715Z,56.90
2022-10-28T22:16:00.568Z,57.41
2022-10-28T22:18:29.178Z,57.21
2022-10-28T22:20:56.766Z,57.61
2022-10-28T22:23:23.709Z,57.33
2022-10-28T22:25:50.611Z,57.34
2022-10-28T22:28:17.490Z,57.69
2022-10-28T22:30:44.344Z,57.08
2022-10-28T22:33:11.204Z,57.31
2022-10-28T22:35:38.155Z,57.40
2022-10-28T22:38:04.983Z,57.17
2022-10-28T22:40:31.888Z,57.77
2022-10-28T22:42:58.721Z,57.02
2022-10-28T22:45:25.611Z,57.32
2022-10-28T22:47:52.800Z,57.07
2022-10-28T22:50:19.982Z,57.54
2022-10-28T22:52:46.933Z,56.97
2022-10-28T22:55:13.812Z,57.42
2022-10-28T22:57:40.671Z,56.88
2022-10-28T23:00:08.356Z,57.48
2022-10-28T23:02:35.358Z,56.97
2022-10-28T23:05:02.351Z,57.47
2022-10-28T23:07:29.322Z,57.45
2022-10-28T23:09:58.516Z,56.66
2022-10-28T23:12:25.375Z,57.36
2022-10-28T23:14:52.248Z,56.68
2022-10-28T23:17:19.077Z,56.97
2022-10-28T23:19:45.955Z,56.73
2022-10-28T23:22:12.828Z,57.06
2022-10-28T23:24:40.181Z,57.18
2022-10-28T23:27:07.076Z,56.69
2022-10-28T23:29:33.965Z,56.77
2022-10-28T23:32:00.797Z,57.57
2022-10-28T23:34:28.480Z,57.03
2022-10-28T23:36:55.319Z,56.89
2022-10-28T23:39:22.377Z,57.21
2022-10-28T23:41:49.313Z,57.46
2022-10-28T23:44:16.318Z,57.40
2022-10-28T23:46:43.237Z,57.25
2022-10-28T23:49:10.167Z,57.28
2022-10-28T23:51:37.049Z,57.44
2022-10-28T23:54:04.292Z,56.51
2022-10-28T23:56:31.349Z,57.33
2022-10-28T23:58:58.296Z,57.18
